PWSweather.com
Personal Weather Stations
Station Observations
ANTHEMNP
Anthem, AZ 85086

Anthem, AZ 85086

Lat: 33.876464, Lon: -112.13861199999997

Elevation: 1930

Station Type: AcuRite 1036

High Low Average
Temperature 77.9°F25.5°F 51.8°F11.0°F 63.1°F17.3°F
Dew Point 16.9°F-8.4°F 5.3°F-14.8°F 10.5°F-11.9°F
Winds 9.2 mph NNW14.8 mph NNW Calm Calm 3.0 mph 4.8 mph
Wind Gusts 12.7 mph20.4 mph -- 3.9 mph6.3 mph
Humidity 20% 9% 13%
Pressure 30.07 in1018.30 in 29.91 in1012.90 in -
Precipitation 0.00 in0.00 in - -
Hour Temp Dew Point Humidity Winds Wind Gusts Pressure Precip Precip Rate Daily Precip Total
12:00 AM 60.3°F15.7°C 7.4°F-13.7°C 12% 2.3 mph NE3.7 kmh NE 2.3 mph3.7 kmh 30.07 in1018.3 mb - 0.00 in0.0 mm 0.00 in0.0 mm
12:05 AM 59.4°F15.2°C 6.7°F-14.1°C 12% Calm Calm -- 30.07 in1018.3 mb - 0.00 in0.0 mm 0.00 in0.0 mm
12:10 AM 59.4°F15.2°C 6.7°F-14.1°C 12% Calm Calm -- 30.06 in1017.9 mb - 0.00 in0.0 mm 0.00 in0.0 mm
12:15 AM 59.0°F15.0°C 6.4°F-14.2°C 12% Calm Calm -- 30.06 in1017.9 mb - 0.00 in0.0 mm 0.00 in0.0 mm
12:20 AM 58.6°F14.8°C 6.1°F-14.4°C 12% Calm Calm -- 30.06 in1017.9 mb - 0.00 in0.0 mm 0.00 in0.0 mm
12:25 AM 58.4°F14.7°C 5.9°F-14.5°C 12% Calm Calm -- 30.06 in1017.9 mb - 0.00 in0.0 mm 0.00 in0.0 mm
12:30 AM 58.1°F14.5°C 5.7°F-14.6°C 12% Calm Calm -- 30.06 in1017.9 mb - 0.00 in0.0 mm 0.00 in0.0 mm
12:35 AM 57.7°F14.3°C 5.3°F-14.8°C 12% Calm Calm -- 30.06 in1017.9 mb - 0.00 in0.0 mm 0.00 in0.0 mm
12:40 AM 57.7°F14.3°C 5.3°F-14.8°C 12% Calm Calm -- 30.06 in1017.9 mb - 0.00 in0.0 mm 0.00 in0.0 mm
12:45 AM 57.7°F14.3°C 5.3°F-14.8°C 12% Calm Calm -- 30.06 in1017.9 mb - 0.00 in0.0 mm 0.00 in0.0 mm
12:50 AM 57.7°F14.3°C 5.3°F-14.8°C 12% Calm Calm -- 30.06 in1017.9 mb - 0.00 in0.0 mm 0.00 in0.0 mm
12:55 AM 57.6°F14.2°C 5.3°F-14.8°C 12% Calm Calm -- 30.06 in1017.9 mb - 0.00 in0.0 mm 0.00 in0.0 mm
01:00 AM 58.2°F14.6°C 5.8°F-14.6°C 12% 4.6 mph NNW7.4 kmh NNW 5.8 mph9.3 kmh 30.05 in1017.6 mb - 0.00 in0.0 mm 0.00 in0.0 mm
01:05 AM 59.1°F15.1°C 6.5°F-14.2°C 12% 6.9 mph NNE11.1 kmh NNE 9.2 mph14.8 kmh 30.05 in1017.6 mb - 0.00 in0.0 mm 0.00 in0.0 mm
01:10 AM 59.2°F15.1°C 6.5°F-14.2°C 12% 4.6 mph NE7.4 kmh NE 6.9 mph11.1 kmh 30.05 in1017.6 mb - 0.00 in0.0 mm 0.00 in0.0 mm
01:15 AM 59.4°F15.2°C 6.7°F-14.1°C 12% 4.6 mph NW7.4 kmh NW 8.1 mph13.0 kmh 30.05 in1017.6 mb - 0.00 in0.0 mm 0.00 in0.0 mm
01:20 AM 59.7°F15.4°C 6.9°F-13.9°C 12% 3.5 mph N5.6 kmh N 4.6 mph7.4 kmh 30.05 in1017.6 mb - 0.00 in0.0 mm 0.00 in0.0 mm
01:25 AM 59.9°F15.5°C 7.1°F-13.8°C 12% 6.9 mph NNE11.1 kmh NNE 9.2 mph14.8 kmh 30.05 in1017.6 mb - 0.00 in0.0 mm 0.00 in0.0 mm
01:30 AM 59.9°F15.5°C 7.1°F-13.8°C 12% 6.9 mph NNE11.1 kmh NNE 6.9 mph11.1 kmh 30.05 in1017.6 mb - 0.00 in0.0 mm 0.00 in0.0 mm
01:35 AM 59.8°F15.4°C 7.0°F-13.9°C 12% 6.9 mph NE11.1 kmh NE 6.9 mph11.1 kmh 30.05 in1017.6 mb - 0.00 in0.0 mm 0.00 in0.0 mm
01:40 AM 59.7°F15.4°C 6.9°F-13.9°C 12% 6.9 mph NE11.1 kmh NE 9.2 mph14.8 kmh 30.05 in1017.6 mb - 0.00 in0.0 mm 0.00 in0.0 mm
01:45 AM 59.9°F15.5°C 7.1°F-13.8°C 12% 6.9 mph NNE11.1 kmh NNE 8.1 mph13.0 kmh 30.04 in1017.3 mb - 0.00 in0.0 mm 0.00 in0.0 mm
02:05 AM 61.5°F16.4°C 8.3°F-13.2°C 12% 8.1 mph N13.0 kmh N 9.2 mph14.8 kmh 30.04 in1017.3 mb - 0.00 in0.0 mm 0.00 in0.0 mm
02:10 AM 62.1°F16.7°C 8.8°F-12.9°C 12% 6.9 mph N11.1 kmh N 8.1 mph13.0 kmh 30.04 in1017.3 mb - 0.00 in0.0 mm 0.00 in0.0 mm
02:15 AM 61.3°F16.3°C 8.2°F-13.2°C 12% 5.8 mph NE9.3 kmh NE 6.9 mph11.1 kmh 30.04 in1017.3 mb - 0.00 in0.0 mm 0.00 in0.0 mm
02:20 AM 60.7°F15.9°C 7.7°F-13.5°C 12% 5.8 mph NE9.3 kmh NE 8.1 mph13.0 kmh 30.04 in1017.3 mb - 0.00 in0.0 mm 0.00 in0.0 mm
02:25 AM 60.1°F15.6°C 7.2°F-13.8°C 12% 6.9 mph NNE11.1 kmh NNE 6.9 mph11.1 kmh 30.04 in1017.3 mb - 0.00 in0.0 mm 0.00 in0.0 mm
02:30 AM 59.5°F15.3°C 6.8°F-14.0°C 12% 4.6 mph N7.4 kmh N 5.8 mph9.3 kmh 30.04 in1017.3 mb - 0.00 in0.0 mm 0.00 in0.0 mm
02:35 AM 59.5°F15.3°C 6.8°F-14.0°C 12% 5.8 mph N9.3 kmh N 6.9 mph11.1 kmh 30.04 in1017.3 mb - 0.00 in0.0 mm 0.00 in0.0 mm
02:40 AM 60.1°F15.6°C 7.2°F-13.8°C 12% 5.8 mph NE9.3 kmh NE 9.2 mph14.8 kmh 30.04 in1017.3 mb - 0.00 in0.0 mm 0.00 in0.0 mm
02:45 AM 60.4°F15.8°C 7.5°F-13.6°C 12% 8.1 mph NE13.0 kmh NE 9.2 mph14.8 kmh 30.04 in1017.3 mb - 0.00 in0.0 mm 0.00 in0.0 mm
02:50 AM 61.3°F16.3°C 8.1°F-13.3°C 12% 6.9 mph 11.1 kmh 10.4 mph16.7 kmh 30.04 in1017.3 mb - 0.00 in0.0 mm 0.00 in0.0 mm
02:55 AM 61.7°F16.5°C 8.5°F-13.1°C 12% 8.1 mph N13.0 kmh N 10.4 mph16.7 kmh 30.04 in1017.3 mb - 0.00 in0.0 mm 0.00 in0.0 mm
03:00 AM 61.3°F16.3°C 8.2°F-13.2°C 12% 9.2 mph NNW14.8 kmh NNW 11.5 mph18.5 kmh 30.04 in1017.3 mb - 0.00 in0.0 mm 0.00 in0.0 mm
03:05 AM 61.3°F16.3°C 8.2°F-13.2°C 12% 6.9 mph WNW11.1 kmh WNW 6.9 mph11.1 kmh 30.04 in1017.3 mb - 0.00 in0.0 mm 0.00 in0.0 mm
03:10 AM 61.4°F16.3°C 8.3°F-13.2°C 12% 9.2 mph NNE14.8 kmh NNE 10.4 mph16.7 kmh 30.04 in1017.3 mb - 0.00 in0.0 mm 0.00 in0.0 mm
03:15 AM 61.6°F16.4°C 8.4°F-13.1°C 12% 9.2 mph NNE14.8 kmh NNE 11.5 mph18.5 kmh 30.04 in1017.3 mb - 0.00 in0.0 mm 0.00 in0.0 mm
03:20 AM 61.0°F16.1°C 8.0°F-13.3°C 12% 6.9 mph N11.1 kmh N 9.2 mph14.8 kmh 30.04 in1017.3 mb - 0.00 in0.0 mm 0.00 in0.0 mm
03:25 AM 60.4°F15.8°C 7.5°F-13.6°C 12% 6.9 mph NE11.1 kmh NE 10.4 mph16.7 kmh 30.04 in1017.3 mb - 0.00 in0.0 mm 0.00 in0.0 mm
03:30 AM 60.2°F15.7°C 7.3°F-13.7°C 12% 6.9 mph NNE11.1 kmh NNE 6.9 mph11.1 kmh 30.04 in1017.3 mb - 0.00 in0.0 mm 0.00 in0.0 mm
03:35 AM 59.8°F15.4°C 7.0°F-13.9°C 12% 6.9 mph N11.1 kmh N 9.2 mph14.8 kmh 30.04 in1017.3 mb - 0.00 in0.0 mm 0.00 in0.0 mm
03:40 AM 59.4°F15.2°C 6.7°F-14.1°C 12% 8.1 mph NNE13.0 kmh NNE 9.2 mph14.8 kmh 30.04 in1017.3 mb - 0.00 in0.0 mm 0.00 in0.0 mm
03:45 AM 59.4°F15.2°C 6.7°F-14.1°C 12% 6.9 mph NNE11.1 kmh NNE 8.1 mph13.0 kmh 30.04 in1017.3 mb - 0.00 in0.0 mm 0.00 in0.0 mm
03:50 AM 59.4°F15.2°C 6.7°F-14.1°C 12% 5.8 mph NNE9.3 kmh NNE 6.9 mph11.1 kmh 30.04 in1017.3 mb - 0.00 in0.0 mm 0.00 in0.0 mm
03:55 AM 59.4°F15.2°C 6.7°F-14.1°C 12% 8.1 mph N13.0 kmh N 10.4 mph16.7 kmh 30.04 in1017.3 mb - 0.00 in0.0 mm 0.00 in0.0 mm
04:00 AM 60.1°F15.6°C 7.2°F-13.8°C 12% 5.8 mph NNE9.3 kmh NNE 5.8 mph9.3 kmh 30.03 in1016.9 mb - 0.00 in0.0 mm 0.00 in0.0 mm
04:05 AM 59.7°F15.4°C 6.9°F-13.9°C 12% Calm Calm -- 30.03 in1016.9 mb - 0.00 in0.0 mm 0.00 in0.0 mm
04:10 AM 59.0°F15.0°C 6.4°F-14.2°C 12% Calm Calm -- 30.03 in1016.9 mb - 0.00 in0.0 mm 0.00 in0.0 mm
04:15 AM 58.3°F14.6°C 5.8°F-14.6°C 12% 1.2 mph NNE1.9 kmh NNE 5.8 mph9.3 kmh 30.03 in1016.9 mb - 0.00 in0.0 mm 0.00 in0.0 mm
04:20 AM 57.7°F14.3°C 5.4°F-14.8°C 12% 3.5 mph N5.6 kmh N 4.6 mph7.4 kmh 30.03 in1016.9 mb - 0.00 in0.0 mm 0.00 in0.0 mm
04:25 AM 57.7°F14.3°C 5.3°F-14.8°C 12% 2.3 mph NNW3.7 kmh NNW 3.5 mph5.6 kmh 30.03 in1016.9 mb - 0.00 in0.0 mm 0.00 in0.0 mm
04:30 AM 57.1°F13.9°C 6.7°F-14.1°C 13% Calm Calm -- 30.03 in1016.9 mb - 0.00 in0.0 mm 0.00 in0.0 mm
04:35 AM 57.0°F13.9°C 6.5°F-14.2°C 13% Calm Calm -- 30.02 in1016.6 mb - 0.00 in0.0 mm 0.00 in0.0 mm
04:40 AM 57.6°F14.2°C 7.0°F-13.9°C 13% 5.8 mph NE9.3 kmh NE 6.9 mph11.1 kmh 30.02 in1016.6 mb - 0.00 in0.0 mm 0.00 in0.0 mm
04:45 AM 57.9°F14.4°C 7.3°F-13.7°C 13% 3.5 mph NNW5.6 kmh NNW 5.8 mph9.3 kmh 30.02 in1016.6 mb - 0.00 in0.0 mm 0.00 in0.0 mm
04:50 AM 57.7°F14.3°C 7.1°F-13.8°C 13% 3.5 mph NE5.6 kmh NE 6.9 mph11.1 kmh 30.02 in1016.6 mb - 0.00 in0.0 mm 0.00 in0.0 mm
04:55 AM 57.7°F14.3°C 7.1°F-13.8°C 13% 4.6 mph N7.4 kmh N 6.9 mph11.1 kmh 30.02 in1016.6 mb - 0.00 in0.0 mm 0.00 in0.0 mm
05:00 AM 57.7°F14.3°C 7.1°F-13.8°C 13% 5.8 mph NE9.3 kmh NE 6.9 mph11.1 kmh 30.02 in1016.6 mb - 0.00 in0.0 mm 0.00 in0.0 mm
05:05 AM 57.6°F14.2°C 7.0°F-13.9°C 13% 5.8 mph N9.3 kmh N 5.8 mph9.3 kmh 30.02 in1016.6 mb - 0.00 in0.0 mm 0.00 in0.0 mm
05:10 AM 57.2°F14.0°C 6.7°F-14.1°C 13% 4.6 mph N7.4 kmh N 5.8 mph9.3 kmh 30.02 in1016.6 mb - 0.00 in0.0 mm 0.00 in0.0 mm
05:15 AM 56.8°F13.8°C 6.4°F-14.2°C 13% Calm Calm -- 30.02 in1016.6 mb - 0.00 in0.0 mm 0.00 in0.0 mm
05:20 AM 56.8°F13.8°C 6.4°F-14.2°C 13% 4.6 mph NE7.4 kmh NE 6.9 mph11.1 kmh 30.02 in1016.6 mb - 0.00 in0.0 mm 0.00 in0.0 mm
05:25 AM 57.7°F14.3°C 7.1°F-13.8°C 13% 6.9 mph NE11.1 kmh NE 8.1 mph13.0 kmh 30.02 in1016.6 mb - 0.00 in0.0 mm 0.00 in0.0 mm
05:30 AM 57.7°F14.3°C 7.1°F-13.8°C 13% 4.6 mph NE7.4 kmh NE 6.9 mph11.1 kmh 30.02 in1016.6 mb - 0.00 in0.0 mm 0.00 in0.0 mm
05:35 AM 57.7°F14.3°C 7.1°F-13.8°C 13% 6.9 mph NNE11.1 kmh NNE 8.1 mph13.0 kmh 30.02 in1016.6 mb - 0.00 in0.0 mm 0.00 in0.0 mm
05:40 AM 57.7°F14.3°C 7.1°F-13.8°C 13% 1.2 mph NE1.9 kmh NE 10.4 mph16.7 kmh 30.02 in1016.6 mb - 0.00 in0.0 mm 0.00 in0.0 mm
05:45 AM 58.1°F14.5°C 7.4°F-13.7°C 13% 6.9 mph NNE11.1 kmh NNE 6.9 mph11.1 kmh 30.02 in1016.6 mb - 0.00 in0.0 mm 0.00 in0.0 mm
05:50 AM 57.7°F14.3°C 7.1°F-13.8°C 13% 2.3 mph NE3.7 kmh NE 5.8 mph9.3 kmh 30.02 in1016.6 mb - 0.00 in0.0 mm 0.00 in0.0 mm
05:55 AM 57.7°F14.3°C 7.1°F-13.8°C 13% 6.9 mph N11.1 kmh N 9.2 mph14.8 kmh 30.02 in1016.6 mb - 0.00 in0.0 mm 0.00 in0.0 mm
06:00 AM 58.3°F14.6°C 7.6°F-13.6°C 13% 6.9 mph NNE11.1 kmh NNE 8.1 mph13.0 kmh 30.02 in1016.6 mb - 0.00 in0.0 mm 0.00 in0.0 mm
06:05 AM 58.6°F14.8°C 7.8°F-13.4°C 13% 6.9 mph NE11.1 kmh NE 5.8 mph9.3 kmh 30.02 in1016.6 mb - 0.00 in0.0 mm 0.00 in0.0 mm
06:10 AM 59.0°F15.0°C 8.1°F-13.3°C 13% 8.1 mph NE13.0 kmh NE 12.7 mph20.4 kmh 30.03 in1016.9 mb - 0.00 in0.0 mm 0.00 in0.0 mm
06:15 AM 58.8°F14.9°C 8.0°F-13.3°C 13% 5.8 mph NE9.3 kmh NE 6.9 mph11.1 kmh 30.03 in1016.9 mb - 0.00 in0.0 mm 0.00 in0.0 mm
06:20 AM 58.2°F14.6°C 7.5°F-13.6°C 13% 5.8 mph NE9.3 kmh NE 5.8 mph9.3 kmh 30.03 in1016.9 mb - 0.00 in0.0 mm 0.00 in0.0 mm
06:25 AM 57.9°F14.4°C 7.3°F-13.7°C 13% 6.9 mph NE11.1 kmh NE 10.4 mph16.7 kmh 30.03 in1016.9 mb - 0.00 in0.0 mm 0.00 in0.0 mm
06:30 AM 57.9°F14.4°C 7.3°F-13.7°C 13% 5.8 mph NNW9.3 kmh NNW 5.8 mph9.3 kmh 30.03 in1016.9 mb - 0.00 in0.0 mm 0.00 in0.0 mm
06:35 AM 58.6°F14.8°C 7.8°F-13.4°C 13% 8.1 mph NE13.0 kmh NE 11.5 mph18.5 kmh 30.03 in1016.9 mb - 0.00 in0.0 mm 0.00 in0.0 mm
06:40 AM 58.8°F14.9°C 8.0°F-13.3°C 13% 8.1 mph NNW13.0 kmh NNW 9.2 mph14.8 kmh 30.03 in1016.9 mb - 0.00 in0.0 mm 0.00 in0.0 mm
06:45 AM 58.6°F14.8°C 7.8°F-13.4°C 13% 8.1 mph NE13.0 kmh NE 10.4 mph16.7 kmh 30.04 in1017.3 mb - 0.00 in0.0 mm 0.00 in0.0 mm
06:50 AM 58.2°F14.6°C 7.5°F-13.6°C 13% 8.1 mph NE13.0 kmh NE 10.4 mph16.7 kmh 30.04 in1017.3 mb - 0.00 in0.0 mm 0.00 in0.0 mm
06:55 AM 57.7°F14.3°C 7.1°F-13.8°C 13% 8.1 mph NE13.0 kmh NE 8.1 mph13.0 kmh 30.04 in1017.3 mb - 0.00 in0.0 mm 0.00 in0.0 mm
07:00 AM 57.6°F14.2°C 7.0°F-13.9°C 13% 8.1 mph N13.0 kmh N 9.2 mph14.8 kmh 30.04 in1017.3 mb - 0.00 in0.0 mm 0.00 in0.0 mm
07:05 AM 57.6°F14.2°C 7.0°F-13.9°C 13% 8.1 mph N13.0 kmh N 11.5 mph18.5 kmh 30.04 in1017.3 mb - 0.00 in0.0 mm 0.00 in0.0 mm
07:10 AM 57.4°F14.1°C 6.9°F-13.9°C 13% 6.9 mph NE11.1 kmh NE 10.4 mph16.7 kmh 30.04 in1017.3 mb - 0.00 in0.0 mm 0.00 in0.0 mm
07:15 AM 56.8°F13.8°C 6.4°F-14.2°C 13% 8.1 mph N13.0 kmh N 9.2 mph14.8 kmh 30.04 in1017.3 mb - 0.00 in0.0 mm 0.00 in0.0 mm
07:20 AM 57.0°F13.9°C 6.5°F-14.2°C 13% 8.1 mph N13.0 kmh N 8.1 mph13.0 kmh 30.04 in1017.3 mb - 0.00 in0.0 mm 0.00 in0.0 mm
07:25 AM 57.2°F14.0°C 6.7°F-14.1°C 13% 8.1 mph NNE13.0 kmh NNE 9.2 mph14.8 kmh 30.04 in1017.3 mb - 0.00 in0.0 mm 0.00 in0.0 mm
07:30 AM 57.6°F14.2°C 7.0°F-13.9°C 13% 6.9 mph NE11.1 kmh NE 9.2 mph14.8 kmh 30.04 in1017.3 mb - 0.00 in0.0 mm 0.00 in0.0 mm
07:35 AM 58.0°F14.4°C 7.3°F-13.7°C 13% 6.9 mph NNW11.1 kmh NNW 9.2 mph14.8 kmh 30.04 in1017.3 mb - 0.00 in0.0 mm 0.00 in0.0 mm
07:40 AM 58.3°F14.6°C 7.6°F-13.6°C 13% 5.8 mph N9.3 kmh N 6.9 mph11.1 kmh 30.04 in1017.3 mb - 0.00 in0.0 mm 0.00 in0.0 mm
07:45 AM 58.6°F14.8°C 7.8°F-13.4°C 13% 8.1 mph NNE13.0 kmh NNE 10.4 mph16.7 kmh 30.04 in1017.3 mb - 0.00 in0.0 mm 0.00 in0.0 mm
07:50 AM 58.6°F14.8°C 7.8°F-13.4°C 13% 5.8 mph NNE9.3 kmh NNE 8.1 mph13.0 kmh 30.04 in1017.3 mb - 0.00 in0.0 mm 0.00 in0.0 mm
07:55 AM 58.8°F14.9°C 7.9°F-13.4°C 13% 9.2 mph N14.8 kmh N 12.7 mph20.4 kmh 30.04 in1017.3 mb - 0.00 in0.0 mm 0.00 in0.0 mm
08:00 AM 58.6°F14.8°C 7.8°F-13.4°C 13% 5.8 mph NNE9.3 kmh NNE 8.1 mph13.0 kmh 30.04 in1017.3 mb - 0.00 in0.0 mm 0.00 in0.0 mm
08:05 AM 58.5°F14.7°C 7.7°F-13.5°C 13% 5.8 mph NNE9.3 kmh NNE 8.1 mph13.0 kmh 30.04 in1017.3 mb - 0.00 in0.0 mm 0.00 in0.0 mm
08:10 AM 58.3°F14.6°C 7.6°F-13.6°C 13% 5.8 mph NNE9.3 kmh NNE 5.8 mph9.3 kmh 30.04 in1017.3 mb - 0.00 in0.0 mm 0.00 in0.0 mm
08:15 AM 58.3°F14.6°C 7.6°F-13.6°C 13% 4.6 mph NNE7.4 kmh NNE 3.5 mph5.6 kmh 30.04 in1017.3 mb - 0.00 in0.0 mm 0.00 in0.0 mm
08:20 AM 58.3°F14.6°C 7.6°F-13.6°C 13% 5.8 mph NNE9.3 kmh NNE 5.8 mph9.3 kmh 30.04 in1017.3 mb - 0.00 in0.0 mm 0.00 in0.0 mm
08:25 AM 58.3°F14.6°C 7.6°F-13.6°C 13% 5.8 mph NE9.3 kmh NE 6.9 mph11.1 kmh 30.05 in1017.6 mb - 0.00 in0.0 mm 0.00 in0.0 mm
08:30 AM 58.3°F14.6°C 7.6°F-13.6°C 13% Calm Calm -- 30.05 in1017.6 mb - 0.00 in0.0 mm 0.00 in0.0 mm
08:35 AM 58.5°F14.7°C 7.7°F-13.5°C 13% Calm Calm 4.6 mph7.4 kmh 30.04 in1017.3 mb - 0.00 in0.0 mm 0.00 in0.0 mm
08:40 AM 58.6°F14.8°C 7.8°F-13.4°C 13% Calm Calm -- 30.04 in1017.3 mb - 0.00 in0.0 mm 0.00 in0.0 mm
08:45 AM 59.1°F15.1°C 8.2°F-13.2°C 13% Calm Calm -- 30.04 in1017.3 mb - 0.00 in0.0 mm 0.00 in0.0 mm
08:50 AM 60.7°F15.9°C 7.7°F-13.5°C 12% 3.5 mph ENE5.6 kmh ENE 4.6 mph7.4 kmh 30.04 in1017.3 mb - 0.00 in0.0 mm 0.00 in0.0 mm
08:55 AM 61.7°F16.5°C 8.5°F-13.1°C 12% Calm Calm -- 30.04 in1017.3 mb - 0.00 in0.0 mm 0.00 in0.0 mm
09:00 AM 62.2°F16.8°C 8.9°F-12.8°C 12% 3.5 mph NNE5.6 kmh NNE 6.9 mph11.1 kmh 30.04 in1017.3 mb - 0.00 in0.0 mm 0.00 in0.0 mm
09:05 AM 62.5°F16.9°C 9.1°F-12.7°C 12% 6.9 mph NE11.1 kmh NE 8.1 mph13.0 kmh 30.04 in1017.3 mb - 0.00 in0.0 mm 0.00 in0.0 mm
09:10 AM 62.9°F17.2°C 9.4°F-12.6°C 12% 4.6 mph NNE7.4 kmh NNE 5.8 mph9.3 kmh 30.05 in1017.6 mb - 0.00 in0.0 mm 0.00 in0.0 mm
09:15 AM 63.1°F17.3°C 9.6°F-12.4°C 12% 4.6 mph NNE7.4 kmh NNE 5.8 mph9.3 kmh 30.05 in1017.6 mb - 0.00 in0.0 mm 0.00 in0.0 mm
09:20 AM 63.7°F17.6°C 10.1°F-12.2°C 12% 4.6 mph N7.4 kmh N 5.8 mph9.3 kmh 30.05 in1017.6 mb - 0.00 in0.0 mm 0.00 in0.0 mm
09:25 AM 64.1°F17.8°C 10.3°F-12.1°C 12% 3.5 mph N5.6 kmh N 4.6 mph7.4 kmh 30.05 in1017.6 mb - 0.00 in0.0 mm 0.00 in0.0 mm
09:30 AM 64.4°F18.0°C 10.6°F-11.9°C 12% 5.8 mph NW9.3 kmh NW 6.9 mph11.1 kmh 30.05 in1017.6 mb - 0.00 in0.0 mm 0.00 in0.0 mm
09:35 AM 64.6°F18.1°C 10.8°F-11.8°C 12% 5.8 mph ENE9.3 kmh ENE 8.1 mph13.0 kmh 30.06 in1017.9 mb - 0.00 in0.0 mm 0.00 in0.0 mm
09:40 AM 64.8°F18.2°C 10.9°F-11.7°C 12% 4.6 mph N7.4 kmh N 4.6 mph7.4 kmh 30.06 in1017.9 mb - 0.00 in0.0 mm 0.00 in0.0 mm
09:45 AM 64.9°F18.3°C 11.0°F-11.7°C 12% 5.8 mph NE9.3 kmh NE 6.9 mph11.1 kmh 30.05 in1017.6 mb - 0.00 in0.0 mm 0.00 in0.0 mm
09:50 AM 65.1°F18.4°C 11.2°F-11.6°C 12% 5.8 mph NE9.3 kmh NE 6.9 mph11.1 kmh 30.05 in1017.6 mb - 0.00 in0.0 mm 0.00 in0.0 mm
09:55 AM 65.3°F18.5°C 11.3°F-11.5°C 12% 4.6 mph N7.4 kmh N 3.5 mph5.6 kmh 30.05 in1017.6 mb - 0.00 in0.0 mm 0.00 in0.0 mm
10:00 AM 65.8°F18.8°C 11.7°F-11.3°C 12% 3.5 mph ENE5.6 kmh ENE 5.8 mph9.3 kmh 30.05 in1017.6 mb - 0.00 in0.0 mm 0.00 in0.0 mm
10:05 AM 66.2°F19.0°C 12.0°F-11.1°C 12% 5.8 mph NE9.3 kmh NE 8.1 mph13.0 kmh 30.05 in1017.6 mb - 0.00 in0.0 mm 0.00 in0.0 mm
10:10 AM 66.0°F18.9°C 11.9°F-11.2°C 12% 5.8 mph NNE9.3 kmh NNE 9.2 mph14.8 kmh 30.05 in1017.6 mb - 0.00 in0.0 mm 0.00 in0.0 mm
10:15 AM 66.2°F19.0°C 12.0°F-11.1°C 12% 6.9 mph NNE11.1 kmh NNE 5.8 mph9.3 kmh 30.05 in1017.6 mb - 0.00 in0.0 mm 0.00 in0.0 mm
10:20 AM 66.7°F19.3°C 10.4°F-12.0°C 11% 5.8 mph NNW9.3 kmh NNW 4.6 mph7.4 kmh 30.05 in1017.6 mb - 0.00 in0.0 mm 0.00 in0.0 mm
10:25 AM 67.1°F19.5°C 10.7°F-11.8°C 11% 5.8 mph NNE9.3 kmh NNE 8.1 mph13.0 kmh 30.05 in1017.6 mb - 0.00 in0.0 mm 0.00 in0.0 mm
10:30 AM 67.6°F19.8°C 11.1°F-11.6°C 11% 3.5 mph N5.6 kmh N 4.6 mph7.4 kmh 30.05 in1017.6 mb - 0.00 in0.0 mm 0.00 in0.0 mm
10:35 AM 68.2°F20.1°C 11.6°F-11.3°C 11% 5.8 mph NNE9.3 kmh NNE 5.8 mph9.3 kmh 30.05 in1017.6 mb - 0.00 in0.0 mm 0.00 in0.0 mm
10:40 AM 68.5°F20.3°C 11.8°F-11.2°C 11% 3.5 mph N5.6 kmh N 3.5 mph5.6 kmh 30.05 in1017.6 mb - 0.00 in0.0 mm 0.00 in0.0 mm
10:45 AM 68.9°F20.5°C 12.2°F-11.0°C 11% 3.5 mph NNE5.6 kmh NNE 5.8 mph9.3 kmh 30.05 in1017.6 mb - 0.00 in0.0 mm 0.00 in0.0 mm
10:50 AM 69.1°F20.6°C 12.3°F-10.9°C 11% 5.8 mph NNE9.3 kmh NNE 6.9 mph11.1 kmh 30.04 in1017.3 mb - 0.00 in0.0 mm 0.00 in0.0 mm
10:55 AM 69.4°F20.8°C 12.5°F-10.8°C 11% 4.6 mph NNW7.4 kmh NNW 3.5 mph5.6 kmh 30.04 in1017.3 mb - 0.00 in0.0 mm 0.00 in0.0 mm
11:00 AM 69.8°F21.0°C 12.9°F-10.6°C 11% 3.5 mph NNE5.6 kmh NNE 5.8 mph9.3 kmh 30.04 in1017.3 mb - 0.00 in0.0 mm 0.00 in0.0 mm
11:05 AM 70.0°F21.1°C 13.0°F-10.6°C 11% 3.5 mph NNE5.6 kmh NNE 3.5 mph5.6 kmh 30.04 in1017.3 mb - 0.00 in0.0 mm 0.00 in0.0 mm
11:10 AM 70.3°F21.3°C 13.2°F-10.4°C 11% 2.3 mph NNE3.7 kmh NNE 3.5 mph5.6 kmh 30.04 in1017.3 mb - 0.00 in0.0 mm 0.00 in0.0 mm
11:15 AM 71.1°F21.7°C 13.9°F-10.1°C 11% 4.6 mph N7.4 kmh N 5.8 mph9.3 kmh 30.04 in1017.3 mb - 0.00 in0.0 mm 0.00 in0.0 mm
11:20 AM 71.4°F21.9°C 11.9°F-11.2°C 10% 2.3 mph NNE3.7 kmh NNE 4.6 mph7.4 kmh 30.03 in1016.9 mb - 0.00 in0.0 mm 0.00 in0.0 mm
11:25 AM 72.0°F22.2°C 12.4°F-10.9°C 10% 4.6 mph NE7.4 kmh NE 5.8 mph9.3 kmh 30.03 in1016.9 mb - 0.00 in0.0 mm 0.00 in0.0 mm
11:30 AM 72.1°F22.3°C 14.6°F-9.7°C 11% Calm Calm -- 30.03 in1016.9 mb - 0.00 in0.0 mm 0.00 in0.0 mm
11:35 AM 73.6°F23.1°C 15.8°F-9.0°C 11% 1.2 mph SSW1.9 kmh SSW 3.5 mph5.6 kmh 30.03 in1016.9 mb - 0.00 in0.0 mm 0.00 in0.0 mm
11:40 AM 73.2°F22.9°C 13.3°F-10.4°C 10% 2.3 mph SSE3.7 kmh SSE 3.5 mph5.6 kmh 30.03 in1016.9 mb - 0.00 in0.0 mm 0.00 in0.0 mm
11:45 AM 73.8°F23.2°C 15.9°F-8.9°C 11% 2.3 mph ESE3.7 kmh ESE 3.5 mph5.6 kmh 30.02 in1016.6 mb - 0.00 in0.0 mm 0.00 in0.0 mm
11:50 AM 73.7°F23.2°C 15.9°F-8.9°C 11% 1.2 mph SSE1.9 kmh SSE 3.5 mph5.6 kmh 30.02 in1016.6 mb - 0.00 in0.0 mm 0.00 in0.0 mm
11:55 AM 74.0°F23.3°C 13.9°F-10.1°C 10% 3.5 mph S5.6 kmh S 4.6 mph7.4 kmh 30.02 in1016.6 mb - 0.00 in0.0 mm 0.00 in0.0 mm
12:00 PM 74.0°F23.3°C 13.9°F-10.1°C 10% Calm Calm -- 30.01 in1016.3 mb - 0.00 in0.0 mm 0.00 in0.0 mm
12:05 PM 74.7°F23.7°C 14.5°F-9.7°C 10% 3.5 mph S5.6 kmh S 3.5 mph5.6 kmh 30.01 in1016.3 mb - 0.00 in0.0 mm 0.00 in0.0 mm
12:10 PM 75.2°F24.0°C 14.8°F-9.6°C 10% 2.3 mph S3.7 kmh S 3.5 mph5.6 kmh 30.00 in1015.9 mb - 0.00 in0.0 mm 0.00 in0.0 mm
12:15 PM 74.9°F23.8°C 14.6°F-9.7°C 10% 2.3 mph SSW3.7 kmh SSW 3.5 mph5.6 kmh 30.00 in1015.9 mb - 0.00 in0.0 mm 0.00 in0.0 mm
12:20 PM 75.0°F23.9°C 14.7°F-9.6°C 10% 1.2 mph S1.9 kmh S 2.3 mph3.7 kmh 30.00 in1015.9 mb - 0.00 in0.0 mm 0.00 in0.0 mm
12:25 PM 75.4°F24.1°C 15.0°F-9.4°C 10% 4.6 mph S7.4 kmh S 4.6 mph7.4 kmh 30.00 in1015.9 mb - 0.00 in0.0 mm 0.00 in0.0 mm
12:30 PM 75.3°F24.1°C 14.9°F-9.5°C 10% 2.3 mph SE3.7 kmh SE 3.5 mph5.6 kmh 30.00 in1015.9 mb - 0.00 in0.0 mm 0.00 in0.0 mm
12:35 PM 76.4°F24.7°C 15.7°F-9.1°C 10% 3.5 mph S5.6 kmh S 4.6 mph7.4 kmh 29.99 in1015.6 mb - 0.00 in0.0 mm 0.00 in0.0 mm
12:40 PM 75.7°F24.3°C 15.2°F-9.3°C 10% 3.5 mph S5.6 kmh S 4.6 mph7.4 kmh 29.99 in1015.6 mb - 0.00 in0.0 mm 0.00 in0.0 mm
12:45 PM 75.9°F24.4°C 15.4°F-9.2°C 10% 3.5 mph S5.6 kmh S 4.6 mph7.4 kmh 29.99 in1015.6 mb - 0.00 in0.0 mm 0.00 in0.0 mm
12:50 PM 76.0°F24.4°C 13.1°F-10.5°C 9% 3.5 mph S5.6 kmh S 4.6 mph7.4 kmh 29.98 in1015.2 mb - 0.00 in0.0 mm 0.00 in0.0 mm
12:55 PM 75.8°F24.3°C 12.9°F-10.6°C 9% 2.3 mph SW3.7 kmh SW 2.3 mph3.7 kmh 29.98 in1015.2 mb - 0.00 in0.0 mm 0.00 in0.0 mm
01:00 PM 76.0°F24.4°C 13.1°F-10.5°C 9% 2.3 mph S3.7 kmh S 4.6 mph7.4 kmh 29.98 in1015.2 mb - 0.00 in0.0 mm 0.00 in0.0 mm
01:05 PM 76.0°F24.4°C 13.0°F-10.6°C 9% 1.2 mph S1.9 kmh S 3.5 mph5.6 kmh 29.98 in1015.2 mb - 0.00 in0.0 mm 0.00 in0.0 mm
01:10 PM 77.2°F25.1°C 13.9°F-10.1°C 9% 1.2 mph SW1.9 kmh SW 3.5 mph5.6 kmh 29.97 in1014.9 mb - 0.00 in0.0 mm 0.00 in0.0 mm
01:15 PM 76.8°F24.9°C 13.6°F-10.2°C 9% 2.3 mph SE3.7 kmh SE 3.5 mph5.6 kmh 29.97 in1014.9 mb - 0.00 in0.0 mm 0.00 in0.0 mm
01:20 PM 77.0°F25.0°C 13.8°F-10.1°C 9% 3.5 mph SE5.6 kmh SE 3.5 mph5.6 kmh 29.97 in1014.9 mb - 0.00 in0.0 mm 0.00 in0.0 mm
01:25 PM 77.3°F25.2°C 14.0°F-10.0°C 9% 2.3 mph S3.7 kmh S 4.6 mph7.4 kmh 29.97 in1014.9 mb - 0.00 in0.0 mm 0.00 in0.0 mm
01:30 PM 76.9°F24.9°C 13.7°F-10.2°C 9% 1.2 mph WSW1.9 kmh WSW 4.6 mph7.4 kmh 29.97 in1014.9 mb - 0.00 in0.0 mm 0.00 in0.0 mm
01:35 PM 77.0°F25.0°C 13.8°F-10.1°C 9% 2.3 mph SW3.7 kmh SW 2.3 mph3.7 kmh 29.96 in1014.6 mb - 0.00 in0.0 mm 0.00 in0.0 mm
01:40 PM 77.3°F25.2°C 14.0°F-10.0°C 9% 1.2 mph S1.9 kmh S 1.2 mph1.9 kmh 29.96 in1014.6 mb - 0.00 in0.0 mm 0.00 in0.0 mm
01:45 PM 77.9°F25.5°C 16.9°F-8.4°C 10% 4.6 mph SW7.4 kmh SW 5.8 mph9.3 kmh 29.96 in1014.6 mb - 0.00 in0.0 mm 0.00 in0.0 mm
01:50 PM 77.9°F25.5°C 14.5°F-9.7°C 9% 4.6 mph S7.4 kmh S 5.8 mph9.3 kmh 29.96 in1014.6 mb - 0.00 in0.0 mm 0.00 in0.0 mm
01:55 PM 77.4°F25.2°C 14.1°F-9.9°C 9% 3.5 mph SSW5.6 kmh SSW 3.5 mph5.6 kmh 29.96 in1014.6 mb - 0.00 in0.0 mm 0.00 in0.0 mm
02:00 PM 76.9°F24.9°C 13.7°F-10.2°C 9% 4.6 mph S7.4 kmh S 8.1 mph13.0 kmh 29.95 in1014.2 mb - 0.00 in0.0 mm 0.00 in0.0 mm
02:05 PM 77.4°F25.2°C 14.1°F-9.9°C 9% 4.6 mph SW7.4 kmh SW 6.9 mph11.1 kmh 29.95 in1014.2 mb - 0.00 in0.0 mm 0.00 in0.0 mm
02:10 PM 76.7°F24.8°C 13.6°F-10.2°C 9% 3.5 mph S5.6 kmh S 4.6 mph7.4 kmh 29.95 in1014.2 mb - 0.00 in0.0 mm 0.00 in0.0 mm
02:15 PM 76.6°F24.8°C 13.5°F-10.3°C 9% 3.5 mph S5.6 kmh S 4.6 mph7.4 kmh 29.95 in1014.2 mb - 0.00 in0.0 mm 0.00 in0.0 mm
02:20 PM 76.7°F24.8°C 13.6°F-10.2°C 9% 3.5 mph WSW5.6 kmh WSW 5.8 mph9.3 kmh 29.95 in1014.2 mb - 0.00 in0.0 mm 0.00 in0.0 mm
02:25 PM 77.1°F25.1°C 13.9°F-10.1°C 9% 3.5 mph S5.6 kmh S 3.5 mph5.6 kmh 29.94 in1013.9 mb - 0.00 in0.0 mm 0.00 in0.0 mm
02:30 PM 77.1°F25.1°C 13.8°F-10.1°C 9% 3.5 mph WSW5.6 kmh WSW 5.8 mph9.3 kmh 29.94 in1013.9 mb - 0.00 in0.0 mm 0.00 in0.0 mm
02:35 PM 77.6°F25.3°C 14.2°F-9.9°C 9% 4.6 mph S7.4 kmh S 6.9 mph11.1 kmh 29.94 in1013.9 mb - 0.00 in0.0 mm 0.00 in0.0 mm
02:40 PM 77.4°F25.2°C 14.1°F-9.9°C 9% 4.6 mph SSW7.4 kmh SSW 5.8 mph9.3 kmh 29.94 in1013.9 mb - 0.00 in0.0 mm 0.00 in0.0 mm
02:45 PM 77.0°F25.0°C 13.8°F-10.1°C 9% 4.6 mph S7.4 kmh S 5.8 mph9.3 kmh 29.94 in1013.9 mb - 0.00 in0.0 mm 0.00 in0.0 mm
02:50 PM 77.1°F25.1°C 13.9°F-10.1°C 9% 2.3 mph S3.7 kmh S 3.5 mph5.6 kmh 29.94 in1013.9 mb - 0.00 in0.0 mm 0.00 in0.0 mm
02:55 PM 76.9°F24.9°C 13.7°F-10.2°C 9% 2.3 mph SSE3.7 kmh SSE 4.6 mph7.4 kmh 29.94 in1013.9 mb - 0.00 in0.0 mm 0.00 in0.0 mm
03:00 PM 76.9°F24.9°C 16.1°F-8.8°C 10% 2.3 mph SSW3.7 kmh SSW 3.5 mph5.6 kmh 29.94 in1013.9 mb - 0.00 in0.0 mm 0.00 in0.0 mm
03:05 PM 76.5°F24.7°C 15.8°F-9.0°C 10% 3.5 mph SSW5.6 kmh SSW 3.5 mph5.6 kmh 29.94 in1013.9 mb - 0.00 in0.0 mm 0.00 in0.0 mm
03:10 PM 76.3°F24.6°C 15.7°F-9.1°C 10% 5.8 mph S9.3 kmh S 5.8 mph9.3 kmh 29.93 in1013.5 mb - 0.00 in0.0 mm 0.00 in0.0 mm
03:15 PM 76.3°F24.6°C 15.7°F-9.1°C 10% 5.8 mph WSW9.3 kmh WSW 6.9 mph11.1 kmh 29.93 in1013.5 mb - 0.00 in0.0 mm 0.00 in0.0 mm
03:20 PM 76.3°F24.6°C 15.6°F-9.1°C 10% 4.6 mph S7.4 kmh S 5.8 mph9.3 kmh 29.93 in1013.5 mb - 0.00 in0.0 mm 0.00 in0.0 mm
03:25 PM 76.8°F24.9°C 16.1°F-8.8°C 10% 1.2 mph NNE1.9 kmh NNE 3.5 mph5.6 kmh 29.93 in1013.5 mb - 0.00 in0.0 mm 0.00 in0.0 mm
03:30 PM 76.6°F24.8°C 15.9°F-8.9°C 10% 3.5 mph S5.6 kmh S 5.8 mph9.3 kmh 29.93 in1013.5 mb - 0.00 in0.0 mm 0.00 in0.0 mm
03:35 PM 76.5°F24.7°C 15.8°F-9.0°C 10% 2.3 mph SE3.7 kmh SE 5.8 mph9.3 kmh 29.93 in1013.5 mb - 0.00 in0.0 mm 0.00 in0.0 mm
03:40 PM 76.5°F24.7°C 15.8°F-9.0°C 10% 3.5 mph S5.6 kmh S 4.6 mph7.4 kmh 29.93 in1013.5 mb - 0.00 in0.0 mm 0.00 in0.0 mm
03:45 PM 75.7°F24.3°C 15.2°F-9.3°C 10% 2.3 mph SW3.7 kmh SW 2.3 mph3.7 kmh 29.93 in1013.5 mb - 0.00 in0.0 mm 0.00 in0.0 mm
03:50 PM 76.1°F24.5°C 15.6°F-9.1°C 10% 3.5 mph S5.6 kmh S 3.5 mph5.6 kmh 29.93 in1013.5 mb - 0.00 in0.0 mm 0.00 in0.0 mm
03:55 PM 75.3°F24.1°C 12.5°F-10.8°C 9% 1.2 mph SW1.9 kmh SW 3.5 mph5.6 kmh 29.93 in1013.5 mb - 0.00 in0.0 mm 0.00 in0.0 mm
04:00 PM 75.4°F24.1°C 12.6°F-10.8°C 9% 4.6 mph SSW7.4 kmh SSW 4.6 mph7.4 kmh 29.93 in1013.5 mb - 0.00 in0.0 mm 0.00 in0.0 mm
04:05 PM 75.0°F23.9°C 12.3°F-10.9°C 9% 3.5 mph SSW5.6 kmh SSW 3.5 mph5.6 kmh 29.93 in1013.5 mb - 0.00 in0.0 mm 0.00 in0.0 mm
04:10 PM 74.7°F23.7°C 12.1°F-11.1°C 9% 3.5 mph S5.6 kmh S 4.6 mph7.4 kmh 29.93 in1013.5 mb - 0.00 in0.0 mm 0.00 in0.0 mm
04:15 PM 74.5°F23.6°C 11.9°F-11.2°C 9% 2.3 mph S3.7 kmh S 3.5 mph5.6 kmh 29.93 in1013.5 mb - 0.00 in0.0 mm 0.00 in0.0 mm
04:20 PM 74.1°F23.4°C 14.0°F-10.0°C 10% 3.5 mph SW5.6 kmh SW 4.6 mph7.4 kmh 29.92 in1013.2 mb - 0.00 in0.0 mm 0.00 in0.0 mm
04:25 PM 73.8°F23.2°C 13.8°F-10.1°C 10% 2.3 mph SW3.7 kmh SW 5.8 mph9.3 kmh 29.92 in1013.2 mb - 0.00 in0.0 mm 0.00 in0.0 mm
04:30 PM 73.4°F23.0°C 13.5°F-10.3°C 10% 3.5 mph S5.6 kmh S 4.6 mph7.4 kmh 29.92 in1013.2 mb - 0.00 in0.0 mm 0.00 in0.0 mm
04:35 PM 73.2°F22.9°C 13.3°F-10.4°C 10% 3.5 mph S5.6 kmh S 3.5 mph5.6 kmh 29.92 in1013.2 mb - 0.00 in0.0 mm 0.00 in0.0 mm
04:40 PM 73.6°F23.1°C 13.6°F-10.2°C 10% Calm Calm -- 29.92 in1013.2 mb - 0.00 in0.0 mm 0.00 in0.0 mm
04:45 PM 72.5°F22.5°C 12.8°F-10.7°C 10% 2.3 mph S3.7 kmh S 2.3 mph3.7 kmh 29.92 in1013.2 mb - 0.00 in0.0 mm 0.00 in0.0 mm
04:50 PM 72.9°F22.7°C 13.0°F-10.6°C 10% Calm Calm -- 29.92 in1013.2 mb - 0.00 in0.0 mm 0.00 in0.0 mm
04:55 PM 72.5°F22.5°C 12.8°F-10.7°C 10% Calm Calm 4.6 mph7.4 kmh 29.92 in1013.2 mb - 0.00 in0.0 mm 0.00 in0.0 mm
05:00 PM 71.8°F22.1°C 12.2°F-11.0°C 10% Calm Calm -- 29.92 in1013.2 mb - 0.00 in0.0 mm 0.00 in0.0 mm
05:05 PM 71.1°F21.7°C 11.7°F-11.3°C 10% Calm Calm -- 29.92 in1013.2 mb - 0.00 in0.0 mm 0.00 in0.0 mm
05:10 PM 70.5°F21.4°C 13.4°F-10.3°C 11% Calm Calm -- 29.92 in1013.2 mb - 0.00 in0.0 mm 0.00 in0.0 mm
05:15 PM 69.8°F21.0°C 12.8°F-10.7°C 11% Calm Calm -- 29.92 in1013.2 mb - 0.00 in0.0 mm 0.00 in0.0 mm
05:20 PM 68.9°F20.5°C 12.2°F-11.0°C 11% Calm Calm -- 29.92 in1013.2 mb - 0.00 in0.0 mm 0.00 in0.0 mm
05:25 PM 68.4°F20.2°C 11.7°F-11.3°C 11% Calm Calm -- 29.92 in1013.2 mb - 0.00 in0.0 mm 0.00 in0.0 mm
05:30 PM 67.8°F19.9°C 11.3°F-11.5°C 11% Calm Calm -- 29.92 in1013.2 mb - 0.00 in0.0 mm 0.00 in0.0 mm
05:35 PM 67.3°F19.6°C 12.8°F-10.7°C 12% Calm Calm -- 29.92 in1013.2 mb - 0.00 in0.0 mm 0.00 in0.0 mm
05:40 PM 66.6°F19.2°C 12.4°F-10.9°C 12% Calm Calm -- 29.92 in1013.2 mb - 0.00 in0.0 mm 0.00 in0.0 mm
05:45 PM 66.0°F18.9°C 11.8°F-11.2°C 12% Calm Calm -- 29.92 in1013.2 mb - 0.00 in0.0 mm 0.00 in0.0 mm
05:50 PM 65.1°F18.4°C 13.0°F-10.6°C 13% Calm Calm -- 29.92 in1013.2 mb - 0.00 in0.0 mm 0.00 in0.0 mm
05:55 PM 64.4°F18.0°C 12.5°F-10.8°C 13% Calm Calm -- 29.92 in1013.2 mb - 0.00 in0.0 mm 0.00 in0.0 mm
06:00 PM 63.9°F17.7°C 12.0°F-11.1°C 13% Calm Calm -- 29.92 in1013.2 mb - 0.00 in0.0 mm 0.00 in0.0 mm
06:05 PM 63.1°F17.3°C 13.0°F-10.6°C 14% Calm Calm -- 29.92 in1013.2 mb - 0.00 in0.0 mm 0.00 in0.0 mm
06:10 PM 62.6°F17.0°C 12.7°F-10.7°C 14% Calm Calm -- 29.92 in1013.2 mb - 0.00 in0.0 mm 0.00 in0.0 mm
06:15 PM 62.2°F16.8°C 12.4°F-10.9°C 14% Calm Calm -- 29.92 in1013.2 mb - 0.00 in0.0 mm 0.00 in0.0 mm
06:20 PM 61.7°F16.5°C 11.9°F-11.2°C 14% Calm Calm -- 29.92 in1013.2 mb - 0.00 in0.0 mm 0.00 in0.0 mm
06:25 PM 61.0°F16.1°C 13.0°F-10.6°C 15% Calm Calm -- 29.93 in1013.5 mb - 0.00 in0.0 mm 0.00 in0.0 mm
06:30 PM 60.4°F15.8°C 13.9°F-10.1°C 16% Calm Calm -- 29.93 in1013.5 mb - 0.00 in0.0 mm 0.00 in0.0 mm
06:35 PM 59.5°F15.3°C 13.2°F-10.4°C 16% Calm Calm -- 29.93 in1013.5 mb - 0.00 in0.0 mm 0.00 in0.0 mm
06:40 PM 59.2°F15.1°C 13.0°F-10.6°C 16% Calm Calm -- 29.93 in1013.5 mb - 0.00 in0.0 mm 0.00 in0.0 mm
06:45 PM 59.2°F15.1°C 13.0°F-10.6°C 16% Calm Calm -- 29.92 in1013.2 mb - 0.00 in0.0 mm 0.00 in0.0 mm
06:50 PM 58.4°F14.7°C 12.3°F-10.9°C 16% Calm Calm -- 29.92 in1013.2 mb - 0.00 in0.0 mm 0.00 in0.0 mm
06:55 PM 58.5°F14.7°C 13.8°F-10.1°C 17% Calm Calm -- 29.92 in1013.2 mb - 0.00 in0.0 mm 0.00 in0.0 mm
07:00 PM 58.5°F14.7°C 13.8°F-10.1°C 17% Calm Calm -- 29.92 in1013.2 mb - 0.00 in0.0 mm 0.00 in0.0 mm
07:05 PM 57.7°F14.3°C 13.1°F-10.5°C 17% Calm Calm -- 29.92 in1013.2 mb - 0.00 in0.0 mm 0.00 in0.0 mm
07:10 PM 57.2°F14.0°C 14.0°F-10.0°C 18% Calm Calm -- 29.92 in1013.2 mb - 0.00 in0.0 mm 0.00 in0.0 mm
07:15 PM 57.0°F13.9°C 13.8°F-10.1°C 18% Calm Calm -- 29.92 in1013.2 mb - 0.00 in0.0 mm 0.00 in0.0 mm
07:20 PM 56.7°F13.7°C 13.6°F-10.2°C 18% Calm Calm -- 29.92 in1013.2 mb - 0.00 in0.0 mm 0.00 in0.0 mm
07:25 PM 57.0°F13.9°C 13.8°F-10.1°C 18% Calm Calm -- 29.92 in1013.2 mb - 0.00 in0.0 mm 0.00 in0.0 mm
07:30 PM 56.5°F13.6°C 13.5°F-10.3°C 18% Calm Calm -- 29.92 in1013.2 mb - 0.00 in0.0 mm 0.00 in0.0 mm
07:35 PM 56.1°F13.4°C 13.1°F-10.5°C 18% Calm Calm -- 29.92 in1013.2 mb - 0.00 in0.0 mm 0.00 in0.0 mm
07:40 PM 55.9°F13.3°C 12.9°F-10.6°C 18% Calm Calm -- 29.92 in1013.2 mb - 0.00 in0.0 mm 0.00 in0.0 mm
07:45 PM 55.4°F13.0°C 12.5°F-10.8°C 18% Calm Calm -- 29.92 in1013.2 mb - 0.00 in0.0 mm 0.00 in0.0 mm
07:50 PM 55.4°F13.0°C 12.5°F-10.8°C 18% Calm Calm -- 29.92 in1013.2 mb - 0.00 in0.0 mm 0.00 in0.0 mm
07:55 PM 55.0°F12.8°C 12.2°F-11.0°C 18% Calm Calm -- 29.92 in1013.2 mb - 0.00 in0.0 mm 0.00 in0.0 mm
08:00 PM 55.4°F13.0°C 12.6°F-10.8°C 18% Calm Calm -- 29.92 in1013.2 mb - 0.00 in0.0 mm 0.00 in0.0 mm
08:05 PM 55.2°F12.9°C 12.4°F-10.9°C 18% Calm Calm -- 29.92 in1013.2 mb - 0.00 in0.0 mm 0.00 in0.0 mm
08:10 PM 55.6°F13.1°C 12.7°F-10.7°C 18% Calm Calm -- 29.92 in1013.2 mb - 0.00 in0.0 mm 0.00 in0.0 mm
08:15 PM 55.2°F12.9°C 12.4°F-10.9°C 18% Calm Calm -- 29.92 in1013.2 mb - 0.00 in0.0 mm 0.00 in0.0 mm
08:20 PM 55.0°F12.8°C 12.2°F-11.0°C 18% Calm Calm -- 29.92 in1013.2 mb - 0.00 in0.0 mm 0.00 in0.0 mm
08:25 PM 55.0°F12.8°C 12.2°F-11.0°C 18% Calm Calm -- 29.92 in1013.2 mb - 0.00 in0.0 mm 0.00 in0.0 mm
08:30 PM 54.9°F12.7°C 12.1°F-11.1°C 18% Calm Calm -- 29.92 in1013.2 mb - 0.00 in0.0 mm 0.00 in0.0 mm
08:35 PM 54.5°F12.5°C 11.8°F-11.2°C 18% Calm Calm -- 29.92 in1013.2 mb - 0.00 in0.0 mm 0.00 in0.0 mm
08:40 PM 54.3°F12.4°C 10.3°F-12.1°C 17% Calm Calm -- 29.92 in1013.2 mb - 0.00 in0.0 mm 0.00 in0.0 mm
08:45 PM 54.3°F12.4°C 10.3°F-12.1°C 17% Calm Calm -- 29.92 in1013.2 mb - 0.00 in0.0 mm 0.00 in0.0 mm
08:50 PM 54.3°F12.4°C 10.3°F-12.1°C 17% Calm Calm -- 29.93 in1013.5 mb - 0.00 in0.0 mm 0.00 in0.0 mm
08:55 PM 54.0°F12.2°C 11.4°F-11.4°C 18% Calm Calm -- 29.93 in1013.5 mb - 0.00 in0.0 mm 0.00 in0.0 mm
09:00 PM 53.6°F12.0°C 11.1°F-11.6°C 18% Calm Calm -- 29.92 in1013.2 mb - 0.00 in0.0 mm 0.00 in0.0 mm
09:05 PM 52.6°F11.4°C 11.4°F-11.4°C 19% Calm Calm -- 29.92 in1013.2 mb - 0.00 in0.0 mm 0.00 in0.0 mm
09:10 PM 53.0°F11.7°C 11.8°F-11.2°C 19% Calm Calm -- 29.93 in1013.5 mb - 0.00 in0.0 mm 0.00 in0.0 mm
09:15 PM 53.1°F11.7°C 13.0°F-10.6°C 20% Calm Calm -- 29.93 in1013.5 mb - 0.00 in0.0 mm 0.00 in0.0 mm
09:20 PM 53.0°F11.7°C 11.7°F-11.3°C 19% Calm Calm -- 29.93 in1013.5 mb - 0.00 in0.0 mm 0.00 in0.0 mm
09:25 PM 52.9°F11.6°C 11.7°F-11.3°C 19% Calm Calm -- 29.93 in1013.5 mb - 0.00 in0.0 mm 0.00 in0.0 mm
09:30 PM 52.9°F11.6°C 11.7°F-11.3°C 19% Calm Calm -- 29.93 in1013.5 mb - 0.00 in0.0 mm 0.00 in0.0 mm
09:35 PM 53.1°F11.7°C 11.9°F-11.2°C 19% Calm Calm -- 29.93 in1013.5 mb - 0.00 in0.0 mm 0.00 in0.0 mm
09:40 PM 53.8°F12.1°C 12.4°F-10.9°C 19% Calm Calm -- 29.93 in1013.5 mb - 0.00 in0.0 mm 0.00 in0.0 mm
09:45 PM 53.6°F12.0°C 12.3°F-10.9°C 19% Calm Calm -- 29.92 in1013.2 mb - 0.00 in0.0 mm 0.00 in0.0 mm
09:50 PM 53.8°F12.1°C 12.4°F-10.9°C 19% Calm Calm -- 29.91 in1012.9 mb - 0.00 in0.0 mm 0.00 in0.0 mm
09:55 PM 53.0°F11.7°C 11.7°F-11.3°C 19% Calm Calm -- 29.91 in1012.9 mb - 0.00 in0.0 mm 0.00 in0.0 mm
10:00 PM 52.5°F11.4°C 12.5°F-10.8°C 20% Calm Calm -- 29.92 in1013.2 mb - 0.00 in0.0 mm 0.00 in0.0 mm
10:05 PM 52.5°F11.4°C 11.3°F-11.5°C 19% Calm Calm -- 29.92 in1013.2 mb - 0.00 in0.0 mm 0.00 in0.0 mm
10:10 PM 52.2°F11.2°C 11.1°F-11.6°C 19% Calm Calm -- 29.91 in1012.9 mb - 0.00 in0.0 mm 0.00 in0.0 mm
10:15 PM 52.2°F11.2°C 11.1°F-11.6°C 19% Calm Calm -- 29.91 in1012.9 mb - 0.00 in0.0 mm 0.00 in0.0 mm
10:20 PM 52.3°F11.3°C 11.2°F-11.6°C 19% Calm Calm -- 29.91 in1012.9 mb - 0.00 in0.0 mm 0.00 in0.0 mm
10:25 PM 52.0°F11.1°C 10.9°F-11.7°C 19% Calm Calm -- 29.92 in1013.2 mb - 0.00 in0.0 mm 0.00 in0.0 mm
10:30 PM 51.8°F11.0°C 9.6°F-12.4°C 18% Calm Calm -- 29.92 in1013.2 mb - 0.00 in0.0 mm 0.00 in0.0 mm
10:35 PM 51.8°F11.0°C 9.6°F-12.4°C 18% Calm Calm -- 29.92 in1013.2 mb - 0.00 in0.0 mm 0.00 in0.0 mm
10:40 PM 52.3°F11.3°C 8.7°F-12.9°C 17% Calm Calm -- 29.92 in1013.2 mb - 0.00 in0.0 mm 0.00 in0.0 mm
10:45 PM 52.9°F11.6°C 9.2°F-12.7°C 17% Calm Calm -- 29.92 in1013.2 mb - 0.00 in0.0 mm 0.00 in0.0 mm
10:50 PM 53.1°F11.7°C 9.4°F-12.6°C 17% Calm Calm 1.2 mph1.9 kmh 29.93 in1013.5 mb - 0.00 in0.0 mm 0.00 in0.0 mm
10:55 PM 53.2°F11.8°C 9.4°F-12.6°C 17% Calm Calm -- 29.93 in1013.5 mb - 0.00 in0.0 mm 0.00 in0.0 mm
11:00 PM 53.2°F11.8°C 9.5°F-12.5°C 17% Calm Calm -- 29.93 in1013.5 mb - 0.00 in0.0 mm 0.00 in0.0 mm
11:05 PM 54.1°F12.3°C 8.8°F-12.9°C 16% Calm Calm -- 29.93 in1013.5 mb - 0.00 in0.0 mm 0.00 in0.0 mm
11:10 PM 54.3°F12.4°C 9.0°F-12.8°C 16% Calm Calm -- 29.93 in1013.5 mb - 0.00 in0.0 mm 0.00 in0.0 mm
11:15 PM 54.3°F12.4°C 9.0°F-12.8°C 16% Calm Calm -- 29.93 in1013.5 mb - 0.00 in0.0 mm 0.00 in0.0 mm
11:20 PM 54.3°F12.4°C 9.0°F-12.8°C 16% Calm Calm -- 29.93 in1013.5 mb - 0.00 in0.0 mm 0.00 in0.0 mm
11:25 PM 54.0°F12.2°C 8.7°F-12.9°C 16% Calm Calm -- 29.93 in1013.5 mb - 0.00 in0.0 mm 0.00 in0.0 mm
11:30 PM 54.0°F12.2°C 8.7°F-12.9°C 16% Calm Calm -- 29.93 in1013.5 mb - 0.00 in0.0 mm 0.00 in0.0 mm
11:35 PM 53.8°F12.1°C 8.6°F-13.0°C 16% Calm Calm -- 29.93 in1013.5 mb - 0.00 in0.0 mm 0.00 in0.0 mm
11:40 PM 53.6°F12.0°C 8.4°F-13.1°C 16% Calm Calm -- 29.93 in1013.5 mb - 0.00 in0.0 mm 0.00 in0.0 mm
11:45 PM 53.6°F12.0°C 8.4°F-13.1°C 16% Calm Calm -- 29.93 in1013.5 mb - 0.00 in0.0 mm 0.00 in0.0 mm
11:50 PM 53.6°F12.0°C 8.4°F-13.1°C 16% Calm Calm -- 29.93 in1013.5 mb - 0.00 in0.0 mm 0.00 in0.0 mm
11:55 PM 53.6°F12.0°C 8.4°F-13.1°C 16% Calm Calm -- 29.93 in1013.5 mb - 0.00 in0.0 mm 0.00 in0.0 mm